Time;durP1;ratioP1;P1;durP2;ratioP2;P2;SDS_P1;SDS_P2;PMS_P1;PMS_P2;Temp;Humidity;BMP_temperature;BMP_pressure;BME280_temperature;BME280_humidity;BME280_pressure;Samples;Min_cycle;Max_cycle;Signal;HPM_P1;HPM_P2
2023/03/06 00:00:50;;;;;;;49.30;25.52;;;;;;;;;;5101108;28;20208;-73
2023/03/06 00:03:16;;;;;;;50.47;25.85;;;;;;;;;;5101538;28;20126;-73
2023/03/06 00:05:41;;;;;;;59.38;26.73;;;;;;;;;;5101611;28;20242;-73
2023/03/06 00:08:07;;;;;;;45.40;25.85;;;;;;;;;;5101548;28;20129;-73
2023/03/06 00:10:32;;;;;;;52.60;25.80;;;;;;;;;;5101711;28;20032;-71
2023/03/06 00:13:01;;;;;;;50.40;25.58;;;;;;;;;;5101765;28;20319;-74
2023/03/06 00:15:27;;;;;;;52.38;25.42;;;;;;;;;;5100676;28;20024;-73
2023/03/06 00:17:53;;;;;;;49.33;25.10;;;;;;;;;;5101359;28;20054;-73
2023/03/06 00:20:19;;;;;;;50.92;24.65;;;;;;;;;;5101492;28;20020;-73
2023/03/06 00:22:45;;;;;;;49.83;24.73;;;;;;;;;;5101121;28;20320;-73
2023/03/06 00:25:16;;;;;;;48.90;25.08;;;;;;;;;;5101468;28;20085;-72
2023/03/06 00:27:42;;;;;;;51.78;24.65;;;;;;;;;;5083128;28;20026;-72
2023/03/06 00:30:12;;;;;;;50.45;23.80;;;;;;;;;;5083164;28;20027;-72
2023/03/06 00:32:38;;;;;;;47.27;23.30;;;;;;;;;;5101135;28;20373;-72
2023/03/06 00:35:04;;;;;;;48.67;24.83;;;;;;;;;;5101349;28;20258;-72
2023/03/06 00:37:29;;;;;;;48.05;24.40;;;;;;;;;;5101052;28;20379;-73
2023/03/06 00:39:54;;;;;;;47.00;23.05;;;;;;;;;;5101071;28;20316;-73
2023/03/06 00:42:20;;;;;;;43.63;22.73;;;;;;;;;;5101370;28;20107;-73
2023/03/06 00:44:45;;;;;;;48.00;23.45;;;;;;;;;;5100837;28;20027;-72
2023/03/06 00:47:12;;;;;;;44.03;23.02;;;;;;;;;;5100894;28;20342;-73
2023/03/06 00:49:37;;;;;;;46.15;23.60;;;;;;;;;;5101222;28;20023;-72
2023/03/06 00:52:03;;;;;;;46.17;23.48;;;;;;;;;;5100807;28;20016;-73
2023/03/06 00:54:28;;;;;;;46.25;23.48;;;;;;;;;;5100165;28;20035;-74
2023/03/06 00:56:54;;;;;;;43.58;22.85;;;;;;;;;;5100886;28;20069;-73
2023/03/06 00:59:19;;;;;;;47.92;23.60;;;;;;;;;;5100546;28;20321;-73
2023/03/06 01:01:45;;;;;;;44.97;22.70;;;;;;;;;;5100806;28;20054;-72
2023/03/06 01:04:11;;;;;;;51.60;23.55;;;;;;;;;;5100785;28;20043;-72
2023/03/06 01:06:36;;;;;;;45.75;23.13;;;;;;;;;;5100911;28;20047;-74
2023/03/06 01:09:03;;;;;;;41.63;22.95;;;;;;;;;;5117849;28;20035;-72
2023/03/06 01:11:29;;;;;;;46.92;23.23;;;;;;;;;;5102558;28;20223;-73
2023/03/06 01:13:54;;;;;;;46.97;22.60;;;;;;;;;;5102529;28;20027;-70
2023/03/06 01:16:20;;;;;;;48.58;23.42;;;;;;;;;;5121196;28;20283;-68
2023/03/06 01:18:45;;;;;;;49.38;23.33;;;;;;;;;;5121254;28;20087;-70
2023/03/06 01:21:12;;;;;;;49.10;22.92;;;;;;;;;;5102996;28;20331;-70
2023/03/06 01:23:38;;;;;;;45.72;22.70;;;;;;;;;;5121507;28;20035;-69
2023/03/06 01:26:03;;;;;;;44.78;23.20;;;;;;;;;;5121477;28;20059;-71
2023/03/06 01:28:29;;;;;;;49.85;23.42;;;;;;;;;;5121254;28;20027;-71
2023/03/06 01:30:55;;;;;;;46.85;23.33;;;;;;;;;;5124468;28;20035;-70
2023/03/06 01:33:21;;;;;;;46.88;23.27;;;;;;;;;;5121542;28;20027;-70
2023/03/06 01:35:46;;;;;;;46.67;23.20;;;;;;;;;;5112623;28;20358;-71
2023/03/06 01:38:11;;;;;;;46.85;23.17;;;;;;;;;;5100570;28;20036;-72
2023/03/06 01:40:38;;;;;;;43.25;21.60;;;;;;;;;;5100920;28;20220;-70
2023/03/06 01:43:27;;;;;;;47.50;22.42;;;;;;;;;;5100531;28;20024;-70
2023/03/06 01:46:20;;;;;;;52.05;23.83;;;;;;;;;;5100512;28;20032;-71
2023/03/06 01:48:47;;;;;;;57.88;22.92;;;;;;;;;;5100412;28;20016;-70
2023/03/06 01:51:13;;;;;;;51.50;22.98;;;;;;;;;;5100439;28;20292;-71
2023/03/06 01:53:42;;;;;;;49.25;22.83;;;;;;;;;;5100495;28;20020;-71
2023/03/06 01:56:08;;;;;;;47.10;22.95;;;;;;;;;;5100665;28;20087;-71
2023/03/06 01:58:35;;;;;;;43.88;22.85;;;;;;;;;;5100003;28;20020;-71
2023/03/06 02:01:00;;;;;;;46.45;22.70;;;;;;;;;;5100749;28;20008;-71
2023/03/06 02:03:27;;;;;;;49.30;23.00;;;;;;;;;;5100027;28;20020;-71
2023/03/06 02:05:53;;;;;;;45.95;22.75;;;;;;;;;;5102520;28;20012;-71
2023/03/06 02:08:22;;;;;;;44.25;22.90;;;;;;;;;;5103679;28;20208;-70
2023/03/06 02:11:12;;;;;;;49.15;23.80;;;;;;;;;;5103911;28;20116;-70
2023/03/06 02:13:39;;;;;;;45.95;22.27;;;;;;;;;;5085548;28;20099;-70
2023/03/06 02:16:05;;;;;;;47.42;23.60;;;;;;;;;;5103901;28;20044;-72
2023/03/06 02:18:32;;;;;;;43.05;21.60;;;;;;;;;;5085776;28;20024;-70
2023/03/06 02:21:01;;;;;;;46.88;22.83;;;;;;;;;;5103793;28;20020;-72
2023/03/06 02:23:46;;;;;;;46.08;22.33;;;;;;;;;;5103306;28;20486;-70
2023/03/06 02:26:14;;;;;;;43.10;22.00;;;;;;;;;;5103812;28;20027;-71
2023/03/06 02:28:39;;;;;;;45.42;21.77;;;;;;;;;;5103319;28;20532;-70
2023/03/06 02:31:06;;;;;;;42.08;21.10;;;;;;;;;;5103671;28;20028;-71
2023/03/06 02:33:31;;;;;;;38.60;19.73;;;;;;;;;;5103435;28;20091;-70
2023/03/06 02:36:00;;;;;;;42.33;19.45;;;;;;;;;;5103584;28;20081;-72
2023/03/06 02:38:47;;;;;;;39.28;20.10;;;;;;;;;;5103287;28;20471;-71
2023/03/06 02:41:14;;;;;;;38.03;18.92;;;;;;;;;;5103420;28;20073;-71
2023/03/06 02:43:44;;;;;;;36.50;19.83;;;;;;;;;;5102641;28;20365;-70
2023/03/06 02:46:10;;;;;;;38.78;18.23;;;;;;;;;;5103354;28;20036;-70
2023/03/06 02:48:35;;;;;;;40.05;19.08;;;;;;;;;;5103235;28;20024;-70
2023/03/06 02:51:00;;;;;;;44.10;19.45;;;;;;;;;;5085294;28;20200;-70
2023/03/06 02:53:26;;;;;;;37.10;18.83;;;;;;;;;;5102866;28;20247;-72
2023/03/06 02:55:51;;;;;;;37.78;18.10;;;;;;;;;;5103183;28;20341;-72
2023/03/06 02:58:20;;;;;;;41.00;18.73;;;;;;;;;;5103065;28;20035;-70
2023/03/06 03:00:47;;;;;;;39.25;18.80;;;;;;;;;;5102353;28;20035;-71
2023/03/06 03:03:13;;;;;;;43.15;18.52;;;;;;;;;;5102661;28;20087;-71
2023/03/06 03:05:38;;;;;;;38.75;19.42;;;;;;;;;;5068157;28;20237;-71
2023/03/06 03:08:04;;;;;;;36.42;17.88;;;;;;;;;;5102833;28;20067;-71
2023/03/06 03:10:30;;;;;;;37.88;18.20;;;;;;;;;;5102815;28;20024;-72
2023/03/06 03:12:57;;;;;;;39.63;19.10;;;;;;;;;;5102545;28;20055;-70
2023/03/06 03:15:22;;;;;;;39.58;19.70;;;;;;;;;;5102225;28;20024;-70
2023/03/06 03:17:48;;;;;;;37.92;18.55;;;;;;;;;;5101599;28;20028;-72
2023/03/06 03:20:17;;;;;;;36.95;18.63;;;;;;;;;;5102467;28;20212;-70
2023/03/06 03:22:47;;;;;;;38.08;18.75;;;;;;;;;;5102507;28;20096;-71
2023/03/06 03:25:13;;;;;;;42.10;17.95;;;;;;;;;;5102424;28;20024;-71
2023/03/06 03:27:38;;;;;;;38.45;18.08;;;;;;;;;;5102643;28;20055;-70
2023/03/06 03:30:04;;;;;;;35.95;18.42;;;;;;;;;;5101932;28;20043;-70
2023/03/06 03:32:30;;;;;;;34.30;17.40;;;;;;;;;;5102276;28;20339;-70
2023/03/06 03:34:55;;;;;;;34.90;18.05;;;;;;;;;;5102260;28;20145;-71
2023/03/06 03:37:21;;;;;;;40.47;18.58;;;;;;;;;;5102304;28;20035;-70
2023/03/06 03:39:46;;;;;;;38.60;17.92;;;;;;;;;;5102317;28;20268;-70
2023/03/06 03:42:12;;;;;;;33.95;17.65;;;;;;;;;;5102179;28;20028;-71
2023/03/06 03:44:37;;;;;;;39.33;18.35;;;;;;;;;;5083699;28;20028;-71
2023/03/06 03:47:03;;;;;;;40.60;17.75;;;;;;;;;;5102300;28;20024;-72
2023/03/06 03:49:28;;;;;;;36.63;18.15;;;;;;;;;;5101395;28;20097;-72
2023/03/06 03:51:53;;;;;;;37.70;18.02;;;;;;;;;;5102090;28;20096;-71
2023/03/06 03:54:19;;;;;;;34.25;17.08;;;;;;;;;;5101892;28;20047;-72
2023/03/06 03:56:44;;;;;;;39.53;18.90;;;;;;;;;;5101807;28;20016;-70
2023/03/06 03:59:10;;;;;;;38.60;19.33;;;;;;;;;;5101555;28;20055;-71
2023/03/06 04:01:36;;;;;;;39.78;19.15;;;;;;;;;;5099847;28;20361;-71
2023/03/06 04:04:01;;;;;;;37.95;19.08;;;;;;;;;;5101561;28;20024;-70
2023/03/06 04:06:27;;;;;;;37.90;19.42;;;;;;;;;;5101481;28;20088;-71
2023/03/06 04:08:52;;;;;;;39.03;19.08;;;;;;;;;;5101057;28;20048;-70
2023/03/06 04:11:18;;;;;;;38.78;20.17;;;;;;;;;;5100822;28;20024;-70
2023/03/06 04:13:44;;;;;;;39.28;18.88;;;;;;;;;;5101172;28;20038;-70
2023/03/06 04:16:09;;;;;;;37.50;18.25;;;;;;;;;;5101520;28;20050;-71
2023/03/06 04:18:34;;;;;;;42.47;19.20;;;;;;;;;;5101077;28;20052;-72
2023/03/06 04:21:00;;;;;;;37.17;19.00;;;;;;;;;;5099663;28;20091;-70
2023/03/06 04:23:26;;;;;;;40.63;19.65;;;;;;;;;;5099605;28;20035;-71
2023/03/06 04:25:52;;;;;;;41.30;18.95;;;;;;;;;;5101218;28;20024;-71
2023/03/06 04:28:18;;;;;;;37.17;18.50;;;;;;;;;;5100032;28;20270;-71
2023/03/06 04:30:45;;;;;;;37.05;18.17;;;;;;;;;;5097178;28;20065;-71
2023/03/06 04:33:10;;;;;;;39.78;18.98;;;;;;;;;;5082785;28;20032;-72
2023/03/06 04:35:36;;;;;;;36.25;18.70;;;;;;;;;;5101190;28;20031;-70
2023/03/06 04:38:03;;;;;;;44.13;18.58;;;;;;;;;;5099930;28;20088;-72
2023/03/06 04:40:30;;;;;;;36.65;18.40;;;;;;;;;;5100154;28;20070;-71
2023/03/06 04:42:58;;;;;;;35.28;18.00;;;;;;;;;;5100875;28;20027;-71
2023/03/06 04:45:24;;;;;;;36.35;17.52;;;;;;;;;;5099408;28;20046;-70
2023/03/06 04:47:50;;;;;;;35.47;17.00;;;;;;;;;;5101076;28;20211;-72
2023/03/06 04:50:17;;;;;;;36.55;17.95;;;;;;;;;;5098441;28;20335;-71
2023/03/06 04:52:42;;;;;;;51.42;17.60;;;;;;;;;;5101001;28;20028;-71
2023/03/06 04:55:11;;;;;;;37.17;16.80;;;;;;;;;;5100877;28;20031;-69
2023/03/06 04:57:37;;;;;;;34.95;16.58;;;;;;;;;;5101727;28;20099;-69
2023/03/06 05:00:07;;;;;;;28.50;16.00;;;;;;;;;;5101412;28;20153;-70
2023/03/06 05:02:33;;;;;;;39.07;17.00;;;;;;;;;;5100895;28;20367;-73
2023/03/06 05:04:58;;;;;;;36.58;17.30;;;;;;;;;;5100766;28;20289;-70
2023/03/06 05:07:23;;;;;;;35.13;17.40;;;;;;;;;;5100923;28;20071;-69
2023/03/06 05:09:49;;;;;;;31.00;16.48;;;;;;;;;;5101052;28;20085;-71
2023/03/06 05:12:14;;;;;;;32.95;16.85;;;;;;;;;;5100990;28;20095;-70
2023/03/06 05:14:40;;;;;;;36.63;16.88;;;;;;;;;;5095787;28;20035;-71
2023/03/06 05:17:05;;;;;;;33.35;15.90;;;;;;;;;;5100267;28;20054;-71
2023/03/06 05:19:30;;;;;;;37.42;16.92;;;;;;;;;;5100768;28;20372;-71
2023/03/06 05:21:56;;;;;;;32.08;15.75;;;;;;;;;;5100284;28;20115;-70
2023/03/06 05:24:21;;;;;;;33.30;16.40;;;;;;;;;;5100551;28;20074;-72
2023/03/06 05:26:46;;;;;;;33.10;16.20;;;;;;;;;;5100680;28;20024;-70
2023/03/06 05:29:12;;;;;;;32.83;16.52;;;;;;;;;;5100530;28;20016;-72
2023/03/06 05:31:37;;;;;;;31.98;15.65;;;;;;;;;;5100537;28;20316;-71
2023/03/06 05:34:02;;;;;;;37.90;17.30;;;;;;;;;;5100543;28;20024;-72
2023/03/06 05:36:28;;;;;;;36.03;16.77;;;;;;;;;;5100581;28;20241;-71
2023/03/06 05:38:53;;;;;;;34.13;16.13;;;;;;;;;;5100119;28;20078;-70
2023/03/06 05:41:19;;;;;;;33.17;17.35;;;;;;;;;;5103693;28;20050;-70
2023/03/06 05:43:44;;;;;;;34.50;16.90;;;;;;;;;;5103897;28;20091;-70
2023/03/06 05:46:10;;;;;;;31.75;16.40;;;;;;;;;;5104324;28;20051;-70
2023/03/06 05:48:36;;;;;;;31.25;15.70;;;;;;;;;;5104365;28;20020;-70
2023/03/06 05:51:02;;;;;;;32.90;15.75;;;;;;;;;;5086065;28;20406;-71
2023/03/06 05:53:28;;;;;;;32.53;15.65;;;;;;;;;;5104181;28;20339;-71
2023/03/06 05:55:58;;;;;;;34.15;15.95;;;;;;;;;;5104049;28;20042;-71
2023/03/06 05:58:24;;;;;;;31.75;16.02;;;;;;;;;;5103683;28;20020;-72
2023/03/06 06:00:50;;;;;;;37.10;16.67;;;;;;;;;;5103938;28;20035;-71
2023/03/06 06:03:16;;;;;;;40.72;16.02;;;;;;;;;;5104023;28;20059;-69
2023/03/06 06:05:42;;;;;;;36.55;16.27;;;;;;;;;;5085812;28;20343;-72
2023/03/06 06:08:07;;;;;;;36.58;17.25;;;;;;;;;;5103651;28;20057;-70
2023/03/06 06:10:33;;;;;;;31.58;16.38;;;;;;;;;;5124398;28;20030;-70
2023/03/06 06:12:58;;;;;;;33.47;16.27;;;;;;;;;;5124142;28;20193;-70
2023/03/06 06:15:26;;;;;;;32.55;16.00;;;;;;;;;;5123811;28;20023;-72
2023/03/06 06:17:52;;;;;;;34.00;16.00;;;;;;;;;;5124249;27;20027;-69
2023/03/06 06:20:18;;;;;;;34.25;16.13;;;;;;;;;;5124171;27;20047;-71
2023/03/06 06:22:43;;;;;;;35.47;15.77;;;;;;;;;;5123839;28;20119;-72
2023/03/06 06:25:09;;;;;;;33.53;15.85;;;;;;;;;;5122828;28;20042;-71
2023/03/06 06:27:34;;;;;;;34.15;15.90;;;;;;;;;;5123863;28;20301;-70
2023/03/06 06:29:59;;;;;;;32.15;15.88;;;;;;;;;;5123294;28;20055;-70
2023/03/06 06:32:25;;;;;;;34.83;16.75;;;;;;;;;;5123582;27;20027;-73
2023/03/06 06:34:50;;;;;;;34.63;16.52;;;;;;;;;;5123638;28;20027;-70
2023/03/06 06:37:16;;;;;;;36.20;17.30;;;;;;;;;;5123665;27;20032;-72
2023/03/06 06:39:41;;;;;;;36.72;17.08;;;;;;;;;;5123922;28;20040;-69
2023/03/06 06:42:08;;;;;;;34.38;17.30;;;;;;;;;;5123852;28;20249;-70
2023/03/06 06:44:34;;;;;;;34.55;17.00;;;;;;;;;;5123290;28;20027;-70
2023/03/06 06:47:00;;;;;;;38.03;17.13;;;;;;;;;;5123563;28;20023;-72
2023/03/06 06:49:25;;;;;;;46.00;17.38;;;;;;;;;;5123722;28;20312;-72
2023/03/06 06:51:50;;;;;;;33.60;15.77;;;;;;;;;;5123299;28;20023;-69
2023/03/06 06:54:17;;;;;;;36.88;17.08;;;;;;;;;;5123478;28;20031;-70
2023/03/06 06:56:42;;;;;;;34.10;16.10;;;;;;;;;;5123535;28;20112;-71
2023/03/06 06:59:08;;;;;;;44.80;16.60;;;;;;;;;;5123127;28;20020;-71
2023/03/06 07:01:34;;;;;;;34.45;16.67;;;;;;;;;;5123134;28;20039;-71
2023/03/06 07:03:59;;;;;;;35.80;17.13;;;;;;;;;;5122976;28;20185;-71
2023/03/06 07:06:25;;;;;;;35.40;17.27;;;;;;;;;;5122679;28;20061;-71
2023/03/06 07:08:51;;;;;;;33.85;17.10;;;;;;;;;;5106343;28;20028;-71
2023/03/06 07:11:17;;;;;;;33.55;16.08;;;;;;;;;;5102667;28;20048;-70
2023/03/06 07:13:44;;;;;;;39.03;17.02;;;;;;;;;;5102366;28;20536;-72
2023/03/06 07:16:09;;;;;;;37.72;17.40;;;;;;;;;;5100598;28;20039;-71
2023/03/06 07:18:35;;;;;;;35.03;16.35;;;;;;;;;;5096679;28;20020;-70
2023/03/06 07:21:00;;;;;;;39.95;16.45;;;;;;;;;;5079742;28;20180;-74
2023/03/06 07:23:26;;;;;;;38.00;16.73;;;;;;;;;;5069634;28;20020;-71
2023/03/06 07:25:52;;;;;;;41.30;17.45;;;;;;;;;;5068729;28;20028;-74
2023/03/06 07:28:18;;;;;;;33.53;16.05;;;;;;;;;;5070168;28;20024;-70
2023/03/06 07:30:44;;;;;;;40.00;17.13;;;;;;;;;;5069047;28;20352;-68
2023/03/06 07:33:09;;;;;;;34.58;16.05;;;;;;;;;;5069980;28;20036;-71
2023/03/06 07:35:35;;;;;;;41.13;17.17;;;;;;;;;;5052439;28;20043;-72
2023/03/06 07:38:01;;;;;;;35.60;16.08;;;;;;;;;;5070185;28;20036;-70
2023/03/06 07:40:26;;;;;;;37.47;17.60;;;;;;;;;;5070197;28;20099;-70
2023/03/06 07:42:53;;;;;;;37.47;16.40;;;;;;;;;;5069948;28;20065;-70
2023/03/06 07:45:19;;;;;;;35.05;16.88;;;;;;;;;;5069634;28;20096;-74
2023/03/06 07:47:45;;;;;;;33.00;15.75;;;;;;;;;;5069994;28;20138;-74
2023/03/06 07:50:11;;;;;;;35.45;16.50;;;;;;;;;;5052352;28;20032;-74
2023/03/06 07:52:36;;;;;;;37.03;16.33;;;;;;;;;;5070200;28;20024;-77
2023/03/06 07:55:02;;;;;;;38.65;17.00;;;;;;;;;;5069742;28;20167;-75
2023/03/06 07:57:27;;;;;;;34.63;16.60;;;;;;;;;;5069865;28;20596;-73
2023/03/06 07:59:52;;;;;;;37.22;16.75;;;;;;;;;;5069397;28;20021;-73
2023/03/06 08:02:18;;;;;;;37.53;16.35;;;;;;;;;;5069478;28;20025;-73
2023/03/06 08:04:43;;;;;;;35.83;17.33;;;;;;;;;;5051577;28;20824;-71
2023/03/06 08:07:09;;;;;;;36.70;16.83;;;;;;;;;;5069576;28;20443;-75
2023/03/06 08:09:35;;;;;;;35.92;16.27;;;;;;;;;;5069940;28;20052;-70
2023/03/06 08:12:00;;;;;;;46.40;18.00;;;;;;;;;;5071384;28;20032;-69
2023/03/06 08:14:26;;;;;;;67.07;19.88;;;;;;;;;;5070367;28;20039;-72
2023/03/06 08:16:54;;;;;;;51.25;17.75;;;;;;;;;;5088463;28;20024;-75
2023/03/06 08:19:20;;;;;;;39.95;16.48;;;;;;;;;;5090063;28;20542;-70
2023/03/06 08:21:45;;;;;;;52.10;17.63;;;;;;;;;;5076814;28;20032;-71
2023/03/06 08:24:12;;;;;;;54.42;18.40;;;;;;;;;;5091506;28;20024;-70
2023/03/06 08:26:38;;;;;;;43.47;16.80;;;;;;;;;;5089998;28;20082;-75
2023/03/06 08:29:03;;;;;;;33.30;15.98;;;;;;;;;;5097855;28;20024;-70
2023/03/06 08:31:38;;;;;;;33.65;16.20;;;;;;;;;;5089482;28;20047;-71
2023/03/06 08:34:10;;;;;;;35.97;15.93;;;;;;;;;;5089785;28;20019;-71
2023/03/06 08:36:35;;;;;;;34.38;15.95;;;;;;;;;;5086662;28;20031;-71
2023/03/06 08:39:01;;;;;;;34.20;16.05;;;;;;;;;;5087513;28;20024;-71
2023/03/06 08:41:27;;;;;;;36.25;15.07;;;;;;;;;;5087703;28;20119;-70
2023/03/06 08:43:52;;;;;;;32.08;15.05;;;;;;;;;;5084579;28;20480;-70
2023/03/06 08:46:20;;;;;;;35.15;14.48;;;;;;;;;;5085140;28;20016;-70
2023/03/06 08:48:47;;;;;;;36.92;14.75;;;;;;;;;;5085944;28;20081;-71
2023/03/06 08:51:13;;;;;;;33.38;14.68;;;;;;;;;;5086379;28;20028;-71
2023/03/06 08:53:38;;;;;;;36.22;14.63;;;;;;;;;;5085908;28;20070;-71
2023/03/06 08:56:04;;;;;;;31.48;13.85;;;;;;;;;;5086161;28;20017;-70
2023/03/06 08:58:29;;;;;;;32.33;13.88;;;;;;;;;;5086579;28;20021;-72
2023/03/06 09:00:55;;;;;;;32.53;13.50;;;;;;;;;;5088897;28;20399;-70
2023/03/06 09:03:22;;;;;;;30.02;13.57;;;;;;;;;;5089152;28;20036;-69
2023/03/06 09:05:48;;;;;;;27.98;13.07;;;;;;;;;;5089256;28;20024;-70
2023/03/06 09:08:14;;;;;;;30.42;13.60;;;;;;;;;;5089044;28;20090;-70
2023/03/06 09:10:44;;;;;;;33.58;13.93;;;;;;;;;;5089495;28;20598;-70
2023/03/06 09:13:09;;;;;;;29.17;14.27;;;;;;;;;;5088887;28;20099;-70
2023/03/06 09:15:35;;;;;;;32.85;13.82;;;;;;;;;;5090767;28;20108;-70
2023/03/06 09:18:00;;;;;;;27.67;13.18;;;;;;;;;;5093410;28;20632;-70
2023/03/06 09:20:25;;;;;;;29.10;12.70;;;;;;;;;;5093492;28;20017;-70
2023/03/06 09:22:51;;;;;;;28.48;13.20;;;;;;;;;;5093376;28;20352;-71
2023/03/06 09:25:19;;;;;;;26.83;12.80;;;;;;;;;;5092777;28;20017;-70
2023/03/06 09:27:46;;;;;;;31.00;13.75;;;;;;;;;;5092499;28;20028;-71
2023/03/06 09:30:12;;;;;;;31.25;13.30;;;;;;;;;;5092132;28;20436;-70
2023/03/06 09:32:37;;;;;;;30.05;12.93;;;;;;;;;;5074784;28;20024;-70
2023/03/06 09:35:03;;;;;;;31.38;13.13;;;;;;;;;;5092415;28;20520;-70
2023/03/06 09:37:29;;;;;;;31.15;12.70;;;;;;;;;;5093130;28;20031;-70
2023/03/06 09:39:55;;;;;;;29.50;13.50;;;;;;;;;;5093051;28;20031;-70
2023/03/06 09:42:22;;;;;;;28.38;12.63;;;;;;;;;;5092406;28;20063;-70
2023/03/06 09:44:55;;;;;;;29.38;12.90;;;;;;;;;;5091910;28;20081;-71
2023/03/06 09:47:39;;;;;;;27.45;12.73;;;;;;;;;;5092823;28;20498;-69
2023/03/06 09:50:29;;;;;;;29.33;13.15;;;;;;;;;;5092562;28;20020;-70
2023/03/06 09:53:03;;;;;;;24.60;12.48;;;;;;;;;;5094925;28;20105;-70
2023/03/06 09:55:35;;;;;;;32.80;12.65;;;;;;;;;;5095297;28;20038;-72
2023/03/06 09:58:20;;;;;;;30.70;12.95;;;;;;;;;;5093495;28;20046;-71
2023/03/06 10:01:04;;;;;;;31.00;12.70;;;;;;;;;;5092715;28;20024;-71
2023/03/06 10:03:37;;;;;;;28.30;12.75;;;;;;;;;;5091976;28;20153;-70
2023/03/06 10:06:13;;;;;;;30.23;12.52;;;;;;;;;;5092327;28;20020;-69
2023/03/06 10:09:03;;;;;;;29.50;12.30;;;;;;;;;;5092160;28;20116;-72
2023/03/06 10:11:57;;;;;;;27.23;12.63;;;;;;;;;;5092669;28;20028;-70
2023/03/06 10:14:48;;;;;;;30.67;12.98;;;;;;;;;;5080316;28;20541;-71
2023/03/06 10:17:21;;;;;;;24.75;11.88;;;;;;;;;;5092479;28;20095;-71
2023/03/06 10:19:47;;;;;;;26.20;12.43;;;;;;;;;;5091999;28;20031;-75
2023/03/06 10:22:15;;;;;;;27.17;12.32;;;;;;;;;;5091780;28;20024;-71
2023/03/06 10:24:58;;;;;;;28.70;13.00;;;;;;;;;;5091781;28;20078;-72
2023/03/06 10:27:45;;;;;;;29.17;12.95;;;;;;;;;;5091739;28;20471;-69
2023/03/06 10:30:11;;;;;;;30.88;13.15;;;;;;;;;;5091815;28;20032;-71
2023/03/06 10:32:55;;;;;;;27.38;13.60;;;;;;;;;;5091968;28;20034;-71
2023/03/06 10:35:33;;;;;;;26.70;11.77;;;;;;;;;;5091620;28;20503;-71
2023/03/06 10:38:17;;;;;;;24.80;11.73;;;;;;;;;;5091996;28;20032;-70
2023/03/06 10:40:47;;;;;;;24.27;11.18;;;;;;;;;;5091451;28;20028;-71
2023/03/06 10:43:13;;;;;;;23.92;12.13;;;;;;;;;;5091726;28;20103;-71
2023/03/06 10:45:48;;;;;;;31.13;11.95;;;;;;;;;;5091486;28;20099;-71
2023/03/06 10:48:18;;;;;;;27.50;11.70;;;;;;;;;;5073423;28;20020;-71
2023/03/06 10:50:43;;;;;;;26.38;11.18;;;;;;;;;;5091514;28;20020;-70
2023/03/06 10:53:20;;;;;;;26.95;12.32;;;;;;;;;;5091473;28;20031;-71
2023/03/06 10:55:58;;;;;;;23.15;11.25;;;;;;;;;;5091307;28;20055;-70
2023/03/06 10:58:29;;;;;;;22.95;10.88;;;;;;;;;;5091096;28;20161;-69
2023/03/06 11:01:19;;;;;;;23.75;11.07;;;;;;;;;;5091046;28;20066;-70
2023/03/06 11:03:45;;;;;;;27.98;11.55;;;;;;;;;;5091060;28;20043;-70
2023/03/06 11:06:30;;;;;;;26.38;10.85;;;;;;;;;;5091311;28;20070;-70
2023/03/06 11:09:13;;;;;;;23.42;11.40;;;;;;;;;;5091131;28;20557;-70
2023/03/06 11:11:39;;;;;;;24.02;11.43;;;;;;;;;;5091176;28;20119;-70
2023/03/06 11:14:16;;;;;;;25.85;12.40;;;;;;;;;;5090265;28;20107;-69
2023/03/06 11:16:52;;;;;;;26.15;10.98;;;;;;;;;;5091009;28;20028;-71
2023/03/06 11:19:24;;;;;;;25.35;10.57;;;;;;;;;;5090844;28;20032;-71
2023/03/06 11:22:16;;;;;;;23.65;11.52;;;;;;;;;;5072985;28;20165;-70
2023/03/06 11:24:48;;;;;;;20.85;10.73;;;;;;;;;;5090574;28;20157;-71
2023/03/06 11:27:33;;;;;;;18.67;9.52;;;;;;;;;;5090883;28;20032;-71
2023/03/06 11:30:02;;;;;;;20.67;9.68;;;;;;;;;;5090307;28;20502;-71
2023/03/06 11:32:32;;;;;;;24.45;10.70;;;;;;;;;;5090549;28;20797;-71
2023/03/06 11:35:08;;;;;;;19.70;10.38;;;;;;;;;;5072248;28;20051;-70
2023/03/06 11:37:57;;;;;;;19.33;10.02;;;;;;;;;;5090474;28;20440;-71
2023/03/06 11:40:42;;;;;;;23.23;10.05;;;;;;;;;;5090519;28;20111;-72
2023/03/06 11:43:45;;;;;;;24.88;10.48;;;;;;;;;;5090494;28;20487;-70
2023/03/06 11:46:21;;;;;;;20.50;10.10;;;;;;;;;;5074573;28;20509;-71
2023/03/06 11:48:52;;;;;;;23.17;10.20;;;;;;;;;;5072555;28;20020;-70
2023/03/06 11:51:32;;;;;;;21.35;9.95;;;;;;;;;;5090360;28;20032;-71
2023/03/06 11:53:59;;;;;;;26.45;10.15;;;;;;;;;;5090336;28;20036;-71
2023/03/06 11:56:42;;;;;;;21.75;10.50;;;;;;;;;;5091114;28;20035;-70
2023/03/06 11:59:24;;;;;;;21.88;10.63;;;;;;;;;;5091163;28;20034;-69
2023/03/06 12:02:17;;;;;;;19.10;10.15;;;;;;;;;;5090382;28;20020;-71
2023/03/06 12:05:03;;;;;;;18.02;9.43;;;;;;;;;;5089694;28;20379;-70
2023/03/06 12:07:32;;;;;;;24.95;10.40;;;;;;;;;;5089996;28;20068;-70
2023/03/06 12:10:13;;;;;;;22.45;10.15;;;;;;;;;;5089900;28;20028;-71
2023/03/06 12:13:08;;;;;;;21.30;10.45;;;;;;;;;;5090189;28;20020;-70
2023/03/06 12:15:36;;;;;;;21.25;10.07;;;;;;;;;;5089708;28;20049;-70
2023/03/06 12:18:20;;;;;;;24.23;10.70;;;;;;;;;;5090125;28;20027;-70
2023/03/06 12:21:05;;;;;;;22.58;9.82;;;;;;;;;;5089647;28;20642;-71
2023/03/06 12:23:39;;;;;;;19.85;9.88;;;;;;;;;;5089992;28;20035;-71
2023/03/06 12:26:23;;;;;;;22.52;9.48;;;;;;;;;;5089542;28;20136;-70
2023/03/06 12:28:51;;;;;;;24.55;10.57;;;;;;;;;;5089525;28;20096;-70
2023/03/06 12:31:27;;;;;;;23.77;10.05;;;;;;;;;;5089610;28;20024;-71
2023/03/06 12:34:30;;;;;;;18.73;9.85;;;;;;;;;;5089811;28;20024;-70
2023/03/06 12:37:08;;;;;;;18.58;10.05;;;;;;;;;;5089641;28;20070;-71
2023/03/06 12:39:50;;;;;;;21.95;9.65;;;;;;;;;;5089430;28;20035;-70
2023/03/06 12:42:25;;;;;;;23.83;9.50;;;;;;;;;;5089302;28;20031;-71
2023/03/06 12:45:17;;;;;;;24.45;10.30;;;;;;;;;;5088877;28;20566;-71
2023/03/06 12:47:46;;;;;;;20.60;10.30;;;;;;;;;;5089299;28;20036;-71
2023/03/06 12:50:26;;;;;;;21.85;9.57;;;;;;;;;;5089355;28;20032;-70
2023/03/06 12:52:54;;;;;;;25.05;9.80;;;;;;;;;;5089631;28;20028;-72
2023/03/06 12:55:21;;;;;;;21.88;9.50;;;;;;;;;;5071113;28;20043;-70
2023/03/06 12:57:48;;;;;;;22.00;9.80;;;;;;;;;;5089402;28;20476;-71
2023/03/06 13:00:34;;;;;;;21.88;9.43;;;;;;;;;;5088830;28;20380;-69
2023/03/06 13:03:31;;;;;;;25.35;9.90;;;;;;;;;;5071541;28;20408;-72
2023/03/06 13:06:19;;;;;;;22.70;9.32;;;;;;;;;;5088346;28;20036;-71
2023/03/06 13:09:03;;;;;;;22.05;9.45;;;;;;;;;;5089311;28;20084;-72
2023/03/06 13:11:52;;;;;;;20.05;9.25;;;;;;;;;;5089174;28;20020;-71
2023/03/06 13:14:33;;;;;;;18.98;9.48;;;;;;;;;;5089015;28;20107;-71
2023/03/06 13:17:31;;;;;;;21.88;9.15;;;;;;;;;;5088670;28;20039;-72
2023/03/06 13:20:12;;;;;;;18.73;8.70;;;;;;;;;;5089394;28;20089;-71
2023/03/06 13:22:38;;;;;;;19.92;9.82;;;;;;;;;;5089341;28;20058;-72
2023/03/06 13:25:15;;;;;;;21.55;9.73;;;;;;;;;;5089092;28;20035;-71
2023/03/06 13:27:52;;;;;;;19.17;9.10;;;;;;;;;;5089312;28;20395;-71
2023/03/06 13:30:21;;;;;;;19.33;9.50;;;;;;;;;;5089003;28;20128;-71
2023/03/06 13:32:48;;;;;;;19.27;9.70;;;;;;;;;;5088925;28;20024;-71
2023/03/06 13:35:28;;;;;;;22.95;9.73;;;;;;;;;;5089121;28;20031;-71
2023/03/06 13:37:54;;;;;;;23.90;10.30;;;;;;;;;;5088952;28;20035;-71
2023/03/06 13:40:35;;;;;;;21.23;10.55;;;;;;;;;;5089297;28;20028;-70
2023/03/06 13:43:03;;;;;;;;;;;;;;;;;;5089368;28;20597;-70
2023/03/06 13:45:32;;;;;;;19.00;8.90;;;;;;;;;;5088573;28;19919;-71
2023/03/06 13:47:59;;;;;;;23.05;9.40;;;;;;;;;;5070597;28;20024;-70
2023/03/06 13:50:30;;;;;;;20.55;9.50;;;;;;;;;;5088915;28;20095;-71
2023/03/06 13:53:17;;;;;;;19.85;9.35;;;;;;;;;;5088924;28;20032;-71
2023/03/06 13:56:05;;;;;;;20.90;9.50;;;;;;;;;;5088875;28;20027;-71
2023/03/06 13:58:47;;;;;;;20.02;9.38;;;;;;;;;;5070712;28;20025;-70
2023/03/06 14:01:37;;;;;;;23.40;9.68;;;;;;;;;;5090022;28;20450;-71
2023/03/06 14:04:30;;;;;;;22.23;8.88;;;;;;;;;;5092289;28;20081;-71
2023/03/06 14:06:58;;;;;;;17.02;9.18;;;;;;;;;;5092134;28;20076;-71
2023/03/06 14:09:29;;;;;;;18.10;9.02;;;;;;;;;;5092362;28;20031;-71
2023/03/06 14:12:05;;;;;;;17.40;8.65;;;;;;;;;;5092420;28;20031;-71
2023/03/06 14:14:41;;;;;;;19.73;9.38;;;;;;;;;;5091863;28;20032;-71
2023/03/06 14:17:19;;;;;;;19.60;9.02;;;;;;;;;;5092279;28;20115;-71
2023/03/06 14:19:44;;;;;;;21.38;8.75;;;;;;;;;;5092560;28;20034;-71
2023/03/06 14:22:17;;;;;;;20.90;9.13;;;;;;;;;;5092016;28;20021;-71
2023/03/06 14:24:52;;;;;;;18.98;8.52;;;;;;;;;;5092024;28;20036;-72
2023/03/06 14:27:18;;;;;;;17.98;8.63;;;;;;;;;;5091732;28;20062;-71
2023/03/06 14:29:47;;;;;;;22.40;8.98;;;;;;;;;;5091687;28;20059;-71
2023/03/06 14:32:15;;;;;;;16.88;8.40;;;;;;;;;;5091566;28;20059;-71
2023/03/06 14:34:45;;;;;;;16.92;9.10;;;;;;;;;;5091809;28;20747;-71